Terminal Aerodrome Forecast
Issued by NWS

Home | Current Version | Previous Version | Graphics & Text | Print | Product List | Glossary On
Versions: 1 2 3 4 5 6 7 8 9 10 11 12 13 14 15 16
000
FTUS43 KMPX 200520
TAFRNH
TAF
KRNH 200520Z 2006/2106 14013G20KT P6SM BKN120 WS020/16050KT
     FM200900 15016G24KT 6SM -RA BR VCTS SCT040CB BKN070
      TEMPO 2009/2013 3SM TSRA BR BKN040CB
     FM201300 17014G21KT P6SM VCSH OVC030
     FM201500 20010KT P6SM OVC020
     FM201700 26013G20KT P6SM SCT030 BKN060
     FM202200 28006KT P6SM SCT120=

USA.gov is the U.S. government's official web portal to all federal, state and local government web resources and services.